createdAt,value
2019-03-12T00:03:37.183Z,3.83
2019-03-12T00:07:39.150Z,4.40
2019-03-12T00:11:41.066Z,4.05
2019-03-12T00:15:43.046Z,4.33
2019-03-12T00:19:44.949Z,4.57
2019-03-12T00:23:46.843Z,4.05
2019-03-12T00:27:48.807Z,4.25
2019-03-12T00:31:51.678Z,4.37
2019-03-12T00:35:53.583Z,4.63
2019-03-12T00:39:55.487Z,4.10
2019-03-12T00:43:57.395Z,4.60
2019-03-12T00:47:59.271Z,4.43
2019-03-12T00:52:01.699Z,4.40
2019-03-12T00:56:03.600Z,4.67
2019-03-12T01:00:18.400Z,4.53
2019-03-12T01:04:20.297Z,4.80
2019-03-12T01:08:22.197Z,5.00
2019-03-12T01:12:24.081Z,4.63
2019-03-12T01:16:25.987Z,5.00
2019-03-12T01:20:27.887Z,4.53
2019-03-12T01:24:29.785Z,4.33
2019-03-12T01:28:31.748Z,4.30
2019-03-12T01:32:33.721Z,5.07
2019-03-12T01:36:35.615Z,4.03
2019-03-12T01:40:37.514Z,3.23
2019-03-12T01:44:39.415Z,3.65
2019-03-12T01:48:41.313Z,3.30
2019-03-12T01:52:43.277Z,3.23
2019-03-12T01:56:45.263Z,2.90
2019-03-12T02:00:47.165Z,3.12
2019-03-12T02:04:49.069Z,2.60
2019-03-12T02:08:51.009Z,2.60
2019-03-12T02:12:52.900Z,2.67
2019-03-12T02:16:54.871Z,3.10
2019-03-12T02:20:56.780Z,2.77
2019-03-12T02:24:58.679Z,3.20
2019-03-12T02:29:00.631Z,2.70
2019-03-12T02:33:02.549Z,2.77
2019-03-12T02:37:05.513Z,2.43
2019-03-12T02:41:07.415Z,2.70
2019-03-12T02:45:16.931Z,2.97
2019-03-12T02:49:19.077Z,2.73
2019-03-12T02:53:20.972Z,2.90
2019-03-12T02:57:22.885Z,3.13
2019-03-12T03:01:24.795Z,3.07
2019-03-12T03:05:26.825Z,3.00
2019-03-12T03:09:28.715Z,3.93
2019-03-12T03:13:31.906Z,3.40
2019-03-12T03:17:33.832Z,4.22
2019-03-12T03:21:35.719Z,3.40
2019-03-12T03:25:37.624Z,3.63
2019-03-12T03:29:39.572Z,3.90
2019-03-12T03:33:41.497Z,2.93
2019-03-12T03:37:43.361Z,2.67
2019-03-12T03:41:45.257Z,4.28
2019-03-12T03:45:47.152Z,3.42
2019-03-12T03:49:49.054Z,2.37
2019-03-12T03:53:50.993Z,3.63
2019-03-12T03:57:52.885Z,3.37
2019-03-12T04:01:54.793Z,3.70
2019-03-12T04:05:56.706Z,3.77
2019-03-12T04:09:58.610Z,3.80
2019-03-12T04:14:00.509Z,4.00
2019-03-12T04:18:02.415Z,3.77
2019-03-12T04:22:04.455Z,4.13
2019-03-12T04:26:06.356Z,4.10
2019-03-12T04:30:16.957Z,5.20
2019-03-12T04:34:18.922Z,4.83
2019-03-12T04:38:20.819Z,5.13
2019-03-12T04:42:22.723Z,5.40
2019-03-12T04:46:24.638Z,5.73
2019-03-12T04:50:26.533Z,6.60
2019-03-12T04:54:28.481Z,7.20
2019-03-12T04:58:30.385Z,6.23
2019-03-12T05:02:32.294Z,6.57
2019-03-12T05:06:34.210Z,8.73
2019-03-12T05:10:37.100Z,6.70
2019-03-12T05:14:39.189Z,7.45
2019-03-12T05:18:41.274Z,7.97
2019-03-12T05:22:43.164Z,7.60
2019-03-12T05:26:45.074Z,8.25
2019-03-12T05:30:46.972Z,7.90
2019-03-12T05:34:49.161Z,7.40
2019-03-12T05:38:51.065Z,7.33
2019-03-12T05:42:52.971Z,6.63
2019-03-12T05:46:54.880Z,7.77
2019-03-12T05:50:56.820Z,6.97
2019-03-12T05:54:58.824Z,7.10
2019-03-12T05:59:00.732Z,7.70
2019-03-12T06:03:02.639Z,7.40
2019-03-12T06:07:18.875Z,7.83
2019-03-12T06:11:20.773Z,6.27
2019-03-12T06:15:22.692Z,6.40
2019-03-12T06:19:24.601Z,7.13
2019-03-12T06:23:26.514Z,6.70
2019-03-12T06:27:28.417Z,6.27
2019-03-12T06:31:34.963Z,6.27
2019-03-12T06:35:54.777Z,5.42
2019-03-12T06:40:01.544Z,6.77
2019-03-12T06:44:05.090Z,5.70
2019-03-12T06:48:14.375Z,5.45
2019-03-12T06:52:28.257Z,6.13
2019-03-12T06:56:29.932Z,5.67
2019-03-12T07:00:45.080Z,6.00
2019-03-12T07:04:51.541Z,6.30
2019-03-12T07:08:57.837Z,5.13
2019-03-12T07:13:01.468Z,6.30
2019-03-12T07:17:07.957Z,5.20
2019-03-12T07:21:11.480Z,5.00
2019-03-12T07:25:20.255Z,6.13
2019-03-12T07:29:41.926Z,3.97
2019-03-12T07:33:45.466Z,6.05
2019-03-12T07:37:57.835Z,5.93
2019-03-12T07:41:59.464Z,4.53
2019-03-12T07:46:15.132Z,5.30
2019-03-12T07:50:24.398Z,4.57
2019-03-12T07:54:30.365Z,6.00
2019-03-12T07:58:40.117Z,4.60
2019-03-12T08:02:55.630Z,3.80
2019-03-12T08:07:04.700Z,4.43
2019-03-12T08:11:08.242Z,4.47
2019-03-12T08:15:30.787Z,4.50
2019-03-12T08:19:37.015Z,4.07
2019-03-12T08:23:49.309Z,4.05
2019-03-12T08:27:59.653Z,4.27
2019-03-12T08:32:06.048Z,3.83
2019-03-12T08:36:07.723Z,3.08
2019-03-12T08:40:10.338Z,2.20
2019-03-12T08:44:30.024Z,2.33
2019-03-12T08:48:33.674Z,2.20
2019-03-12T08:52:39.666Z,2.80
2019-03-12T08:56:43.216Z,2.55
2019-03-12T09:00:52.952Z,3.00
2019-03-12T09:05:12.810Z,3.23
2019-03-12T09:09:19.137Z,3.30
2019-03-12T09:13:20.804Z,2.90
2019-03-12T09:17:27.059Z,3.00
2019-03-12T09:21:34.454Z,3.40
2019-03-12T09:25:37.991Z,2.98
2019-03-12T09:29:39.671Z,3.87
2019-03-12T09:33:59.460Z,4.22
2019-03-12T09:38:06.067Z,3.60
2019-03-12T09:42:18.859Z,3.03
2019-03-12T09:46:25.196Z,3.80
2019-03-12T09:50:28.742Z,4.10
2019-03-12T09:54:39.313Z,3.90
2019-03-12T09:58:48.595Z,3.93
2019-03-12T10:02:52.151Z,3.67
2019-03-12T10:07:01.589Z,3.53
2019-03-12T10:11:07.713Z,3.67
2019-03-12T10:15:27.178Z,3.93
2019-03-12T10:19:42.603Z,3.53
2019-03-12T10:23:52.103Z,3.70
2019-03-12T10:27:56.705Z,3.87
2019-03-12T10:32:00.263Z,2.90
2019-03-12T10:36:20.264Z,3.27
2019-03-12T10:40:35.875Z,2.87
2019-03-12T10:44:39.423Z,3.20
2019-03-12T10:48:41.500Z,3.08
2019-03-12T10:52:43.419Z,2.70
2019-03-12T10:56:45.313Z,2.33
2019-03-12T11:00:47.285Z,2.20
2019-03-12T11:04:49.193Z,3.30
2019-03-12T11:08:51.099Z,3.63
2019-03-12T11:12:53.000Z,4.10
2019-03-12T11:16:54.919Z,3.33
2019-03-12T11:20:58.715Z,2.80
2019-03-12T11:25:00.406Z,2.73
2019-03-12T11:29:02.304Z,2.73
2019-03-12T11:33:04.260Z,3.03
2019-03-12T11:37:06.182Z,2.40
2019-03-12T11:41:08.149Z,2.97
2019-03-12T11:45:17.075Z,2.93
2019-03-12T11:49:16.483Z,2.10
2019-03-12T11:53:18.369Z,2.60
2019-03-12T11:57:20.344Z,3.00
2019-03-12T12:01:22.344Z,2.83
2019-03-12T12:05:24.229Z,2.50
2019-03-12T12:09:26.129Z,3.20
2019-03-12T12:13:28.044Z,2.57
2019-03-12T12:17:29.942Z,2.70
2019-03-12T12:21:32.218Z,2.53
2019-03-12T12:25:34.200Z,2.50
2019-03-12T12:29:36.114Z,2.80
2019-03-12T12:33:37.995Z,2.60
2019-03-12T12:37:40.033Z,2.35
2019-03-12T12:41:41.936Z,2.57
2019-03-12T12:45:44.998Z,2.60
2019-03-12T12:49:46.948Z,2.60
2019-03-12T12:53:48.842Z,2.97
2019-03-12T12:57:50.744Z,2.70
2019-03-12T13:01:52.652Z,2.40
2019-03-12T13:05:55.781Z,2.33
2019-03-12T13:09:57.839Z,2.07
2019-03-12T13:13:59.744Z,2.63
2019-03-12T13:18:01.666Z,2.50
2019-03-12T13:22:03.599Z,2.37
2019-03-12T13:26:05.498Z,2.30
2019-03-12T13:30:16.954Z,2.30
2019-03-12T13:34:18.849Z,1.97
2019-03-12T13:38:20.765Z,2.03
2019-03-12T13:42:22.848Z,2.10
2019-03-12T13:46:24.757Z,1.93
2019-03-12T13:50:27.126Z,1.70
2019-03-12T13:54:29.978Z,1.60
2019-03-12T13:58:32.292Z,2.17
2019-03-12T14:02:34.214Z,1.93
2019-03-12T14:06:37.591Z,1.57
2019-03-12T14:10:39.732Z,2.00
2019-03-12T14:14:41.912Z,1.72
2019-03-12T14:18:43.829Z,1.60
2019-03-12T14:22:45.748Z,1.77
2019-03-12T14:26:47.665Z,1.90
2019-03-12T14:30:49.719Z,1.77
2019-03-12T14:34:51.622Z,1.70
2019-03-12T14:38:53.616Z,1.50
2019-03-12T14:42:55.524Z,1.90
2019-03-12T14:46:57.441Z,1.63
2019-03-12T14:50:59.350Z,1.63
2019-03-12T14:55:01.259Z,1.63
2019-03-12T14:59:03.710Z,1.60
2019-03-12T15:03:05.775Z,1.73
2019-03-12T15:07:07.711Z,1.67
2019-03-12T15:11:09.603Z,1.63
2019-03-12T15:15:13.513Z,1.53
2019-03-12T15:19:15.669Z,1.50
2019-03-12T15:23:17.935Z,1.57
2019-03-12T15:27:19.835Z,1.50
2019-03-12T15:31:21.736Z,1.63
2019-03-12T15:35:23.633Z,1.30
2019-03-12T15:39:25.524Z,1.60
2019-03-12T15:43:27.431Z,1.47
2019-03-12T15:47:29.339Z,1.30
2019-03-12T15:51:32.481Z,1.30
2019-03-12T15:55:34.365Z,1.17
2019-03-12T15:59:36.283Z,1.40
2019-03-12T16:03:38.197Z,1.60
2019-03-12T16:07:40.111Z,1.55
2019-03-12T16:11:42.016Z,1.20
2019-03-12T16:15:43.903Z,1.13
2019-03-12T16:19:45.839Z,1.37
2019-03-12T16:23:47.699Z,1.20
2019-03-12T16:27:49.598Z,1.40
2019-03-12T16:31:52.685Z,0.90
2019-03-12T16:35:54.570Z,0.97
2019-03-12T16:39:56.789Z,1.10
2019-03-12T16:43:59.651Z,0.93
2019-03-12T16:48:01.758Z,0.90
2019-03-12T16:52:04.611Z,1.20
2019-03-12T16:56:06.583Z,1.23
2019-03-12T17:00:15.285Z,1.20
2019-03-12T17:04:17.195Z,1.20
2019-03-12T17:08:19.178Z,1.40
2019-03-12T17:12:21.073Z,0.70
2019-03-12T17:16:22.956Z,1.70
2019-03-12T17:20:25.135Z,1.50
2019-03-12T17:24:27.011Z,0.80
2019-03-12T17:28:28.932Z,1.57
2019-03-12T17:32:30.842Z,1.30
2019-03-12T17:36:32.727Z,1.30
2019-03-12T17:40:34.633Z,1.32
2019-03-12T17:44:36.531Z,1.50
2019-03-12T17:48:38.434Z,1.30
2019-03-12T17:52:40.344Z,0.88
2019-03-12T17:56:42.229Z,1.00
2019-03-12T18:00:45.416Z,1.10
2019-03-12T18:04:47.317Z,0.88
2019-03-12T18:08:49.219Z,1.32
2019-03-12T18:12:51.112Z,1.40
2019-03-12T18:16:53.010Z,1.20
2019-03-12T18:20:54.982Z,1.10
2019-03-12T18:24:56.882Z,1.40
2019-03-12T18:28:59.401Z,1.40
2019-03-12T18:33:01.356Z,1.37
2019-03-12T18:37:10.578Z,1.20
2019-03-12T18:41:15.236Z,0.80
2019-03-12T18:45:23.413Z,0.90
2019-03-12T18:49:25.305Z,1.17
2019-03-12T18:53:27.207Z,1.00
2019-03-12T18:57:29.112Z,1.20
2019-03-12T19:01:32.481Z,0.90
2019-03-12T19:05:34.398Z,1.10
2019-03-12T19:09:36.304Z,1.30
2019-03-12T19:13:38.283Z,0.82
2019-03-12T19:17:41.209Z,0.90
2019-03-12T19:21:43.193Z,1.33
2019-03-12T19:25:48.247Z,1.05
2019-03-12T19:29:50.152Z,0.90
2019-03-12T19:33:53.428Z,0.83
2019-03-12T19:37:57.415Z,1.23
2019-03-12T19:41:59.326Z,0.60
2019-03-12T19:46:01.209Z,1.20
2019-03-12T19:50:06.165Z,1.20
2019-03-12T19:54:08.057Z,0.90
2019-03-12T19:58:10.248Z,1.10
2019-03-12T20:02:16.434Z,1.00
2019-03-12T20:06:15.729Z,1.30
2019-03-12T20:10:57.395Z,1.00
2019-03-12T20:15:21.318Z,1.30
2019-03-12T20:19:56.593Z,1.10
2019-03-12T20:24:55.227Z,1.60
2019-03-12T20:29:21.438Z,1.20
2019-03-12T20:33:39.702Z,1.40
2019-03-12T20:38:25.682Z,1.42
2019-03-12T20:42:57.764Z,1.47
2019-03-12T20:47:38.708Z,1.50
2019-03-12T20:52:18.822Z,1.30
2019-03-12T20:56:51.921Z,1.30
2019-03-12T21:01:23.184Z,1.30
2019-03-12T21:06:16.677Z,1.33
2019-03-12T21:11:00.688Z,1.20
2019-03-12T21:15:34.248Z,1.57
2019-03-12T21:20:13.681Z,1.20
2019-03-12T21:24:42.430Z,1.30
2019-03-12T21:29:23.362Z,0.90
2019-03-12T21:33:25.260Z,1.20
2019-03-12T21:37:27.160Z,1.00
2019-03-12T21:41:29.116Z,1.40
2019-03-12T21:45:31.008Z,1.13
2019-03-12T21:49:33.256Z,1.17
2019-03-12T21:53:35.148Z,1.20
2019-03-12T21:57:37.063Z,1.42
2019-03-12T22:01:38.958Z,1.07
2019-03-12T22:05:40.958Z,1.42
2019-03-12T22:09:42.861Z,1.40
2019-03-12T22:13:44.767Z,1.40
2019-03-12T22:17:47.501Z,1.12
2019-03-12T22:21:54.070Z,1.30
2019-03-12T22:25:56.198Z,1.43
2019-03-12T22:29:58.044Z,1.33
2019-03-12T22:33:59.943Z,1.57
2019-03-12T22:38:01.865Z,0.87
2019-03-12T22:42:03.933Z,1.40
2019-03-12T22:46:05.889Z,1.60
2019-03-12T22:50:18.274Z,1.40
2019-03-12T22:58:47.241Z,3.83
2019-03-12T23:03:07.418Z,2.00
2019-03-12T23:07:27.068Z,1.47
2019-03-12T23:11:30.564Z,1.23
2019-03-12T23:15:32.871Z,1.40
2019-03-12T23:19:34.846Z,1.00
2019-03-12T23:23:36.753Z,1.12
2019-03-12T23:27:38.648Z,1.20
2019-03-12T23:31:40.634Z,1.60
2019-03-12T23:35:42.537Z,2.07
2019-03-12T23:39:44.473Z,17.75
2019-03-12T23:43:46.424Z,3.20
2019-03-12T23:47:50.334Z,2.20
2019-03-12T23:51:51.996Z,0.83
2019-03-12T23:55:54.125Z,5.97
2019-03-12T23:59:56.143Z,4.53
